sensor_id;sensor_type;location;lat;lon;timestamp;pressure;altitude;pressure_sealevel;temperature;humidity
83941;BME280;73976;68.386;23.636;2024-01-30T00:01:07;96054.66;;;-1.23;76.00
83941;BME280;73976;68.386;23.636;2024-01-30T00:03:36;95993.22;;;-1.61;78.77
83941;BME280;73976;68.386;23.636;2024-01-30T00:06:04;95814.47;;;-2.78;79.55
83941;BME280;73976;68.386;23.636;2024-01-30T00:08:32;96040.28;;;-1.41;81.87
83941;BME280;73976;68.386;23.636;2024-01-30T00:11:00;96026.19;;;-1.55;82.98
83941;BME280;73976;68.386;23.636;2024-01-30T00:13:29;96035.59;;;-1.54;83.88
83941;BME280;73976;68.386;23.636;2024-01-30T00:15:57;96070.56;;;-1.42;83.74
83941;BME280;73976;68.386;23.636;2024-01-30T00:18:25;96046.94;;;-1.63;83.68
83941;BME280;73976;68.386;23.636;2024-01-30T00:20:53;96100.13;;;-1.44;83.67
83941;BME280;73976;68.386;23.636;2024-01-30T00:23:22;96074.09;;;-1.67;84.55
83941;BME280;73976;68.386;23.636;2024-01-30T00:25:50;96122.81;;;-1.46;83.66
83941;BME280;73976;68.386;23.636;2024-01-30T00:28:18;96083.47;;;-1.74;83.47
83941;BME280;73976;68.386;23.636;2024-01-30T00:30:47;96041.53;;;-2.02;82.44
83941;BME280;73976;68.386;23.636;2024-01-30T00:33:15;96137.50;;;-1.55;82.73
83941;BME280;73976;68.386;23.636;2024-01-30T00:35:44;96156.59;;;-1.56;82.72
83941;BME280;73976;68.386;23.636;2024-01-30T00:38:12;96143.50;;;-1.54;81.52
83941;BME280;73976;68.386;23.636;2024-01-30T00:40:40;96118.09;;;-1.75;81.10
83941;BME280;73976;68.386;23.636;2024-01-30T00:43:08;96150.47;;;-1.47;80.20
83941;BME280;73976;68.386;23.636;2024-01-30T00:45:36;96147.53;;;-1.68;80.08
83941;BME280;73976;68.386;23.636;2024-01-30T00:48:04;96164.72;;;-1.51;80.58
83941;BME280;73976;68.386;23.636;2024-01-30T00:50:33;96217.47;;;-1.44;79.70
83941;BME280;73976;68.386;23.636;2024-01-30T00:53:01;96162.72;;;-1.65;80.39
83941;BME280;73976;68.386;23.636;2024-01-30T00:55:29;96200.00;;;-1.42;81.03
83941;BME280;73976;68.386;23.636;2024-01-30T00:57:57;96179.91;;;-1.56;81.07
83941;BME280;73976;68.386;23.636;2024-01-30T01:00:26;96196.88;;;-1.53;80.85
83941;BME280;73976;68.386;23.636;2024-01-30T01:02:56;96207.09;;;-1.52;81.55
83941;BME280;73976;68.386;23.636;2024-01-30T01:05:25;96215.16;;;-1.55;82.25
83941;BME280;73976;68.386;23.636;2024-01-30T01:07:53;96230.09;;;-1.41;82.43
83941;BME280;73976;68.386;23.636;2024-01-30T01:10:21;96217.75;;;-1.63;83.20
83941;BME280;73976;68.386;23.636;2024-01-30T01:12:50;96187.72;;;-1.90;83.08
83941;BME280;73976;68.386;23.636;2024-01-30T01:15:18;96210.25;;;-1.74;84.26
83941;BME280;73976;68.386;23.636;2024-01-30T01:17:46;96039.38;;;-3.05;84.00
83941;BME280;73976;68.386;23.636;2024-01-30T01:20:15;96284.72;;;-1.60;84.45
83941;BME280;73976;68.386;23.636;2024-01-30T01:22:43;96236.41;;;-1.85;84.87
83941;BME280;73976;68.386;23.636;2024-01-30T01:25:11;96213.31;;;-2.12;84.40
83941;BME280;73976;68.386;23.636;2024-01-30T01:27:40;96275.63;;;-1.64;84.53
83941;BME280;73976;68.386;23.636;2024-01-30T01:30:10;96294.47;;;-1.54;85.33
83941;BME280;73976;68.386;23.636;2024-01-30T01:32:39;96233.28;;;-1.97;85.40
83941;BME280;73976;68.386;23.636;2024-01-30T01:35:12;96100.88;;;-2.75;85.81
83941;BME280;73976;68.386;23.636;2024-01-30T01:37:41;96256.47;;;-1.87;86.37
83941;BME280;73976;68.386;23.636;2024-01-30T01:40:09;96277.47;;;-1.90;85.99
83941;BME280;73976;68.386;23.636;2024-01-30T01:42:37;96281.97;;;-1.92;85.45
83941;BME280;73976;68.386;23.636;2024-01-30T01:45:06;96302.84;;;-1.94;85.26
83941;BME280;73976;68.386;23.636;2024-01-30T01:47:35;96284.50;;;-2.08;84.51
83941;BME280;73976;68.386;23.636;2024-01-30T01:50:03;96339.34;;;-1.71;85.28
83941;BME280;73976;68.386;23.636;2024-01-30T01:52:32;96347.25;;;-1.72;85.05
83941;BME280;73976;68.386;23.636;2024-01-30T01:55:00;96356.59;;;-1.79;85.21
83941;BME280;73976;68.386;23.636;2024-01-30T01:57:28;96319.19;;;-2.19;84.35
83941;BME280;73976;68.386;23.636;2024-01-30T01:59:56;96276.28;;;-2.29;84.10
83941;BME280;73976;68.386;23.636;2024-01-30T02:02:26;96338.13;;;-2.10;84.89
83941;BME280;73976;68.386;23.636;2024-01-30T02:04:55;96392.09;;;-1.90;84.36
83941;BME280;73976;68.386;23.636;2024-01-30T02:07:23;96337.44;;;-2.20;84.72
83941;BME280;73976;68.386;23.636;2024-01-30T02:09:52;96357.06;;;-2.10;84.83
83941;BME280;73976;68.386;23.636;2024-01-30T02:12:20;96358.16;;;-2.12;83.90
83941;BME280;73976;68.386;23.636;2024-01-30T02:14:48;96331.81;;;-2.33;84.13
83941;BME280;73976;68.386;23.636;2024-01-30T02:17:17;96324.34;;;-2.36;83.98
83941;BME280;73976;68.386;23.636;2024-01-30T02:19:45;96386.53;;;-2.03;83.65
83941;BME280;73976;68.386;23.636;2024-01-30T02:22:13;96367.84;;;-2.14;83.65
83941;BME280;73976;68.386;23.636;2024-01-30T02:24:42;96333.75;;;-2.35;82.55
83941;BME280;73976;68.386;23.636;2024-01-30T02:27:10;96360.84;;;-2.22;81.08
83941;BME280;73976;68.386;23.636;2024-01-30T02:29:38;96368.16;;;-2.17;80.53
83941;BME280;73976;68.386;23.636;2024-01-30T02:32:06;96343.66;;;-2.31;80.78
83941;BME280;73976;68.386;23.636;2024-01-30T02:34:35;96423.66;;;-1.86;80.64
83941;BME280;73976;68.386;23.636;2024-01-30T02:37:03;96377.44;;;-2.07;80.38
83941;BME280;73976;68.386;23.636;2024-01-30T02:39:32;96419.81;;;-1.82;78.99
83941;BME280;73976;68.386;23.636;2024-01-30T02:42:00;96402.25;;;-1.96;78.37
83941;BME280;73976;68.386;23.636;2024-01-30T02:44:28;96407.66;;;-2.07;78.12
83941;BME280;73976;68.386;23.636;2024-01-30T02:46:56;96403.75;;;-2.11;78.81
83941;BME280;73976;68.386;23.636;2024-01-30T02:49:24;96379.75;;;-2.21;79.13
83941;BME280;73976;68.386;23.636;2024-01-30T02:51:53;96444.81;;;-1.91;78.17
83941;BME280;73976;68.386;23.636;2024-01-30T02:54:21;96440.47;;;-1.90;77.92
83941;BME280;73976;68.386;23.636;2024-01-30T02:56:50;96357.53;;;-2.49;78.28
83941;BME280;73976;68.386;23.636;2024-01-30T02:59:18;96388.19;;;-2.37;77.00
83941;BME280;73976;68.386;23.636;2024-01-30T03:01:46;96466.78;;;-1.95;77.95
83941;BME280;73976;68.386;23.636;2024-01-30T03:04:14;96471.44;;;-1.98;76.33
83941;BME280;73976;68.386;23.636;2024-01-30T03:06:46;96468.16;;;-2.00;75.88
83941;BME280;73976;68.386;23.636;2024-01-30T03:09:17;96414.78;;;-2.44;75.85
83941;BME280;73976;68.386;23.636;2024-01-30T03:11:45;96475.34;;;-2.12;75.78
83941;BME280;73976;68.386;23.636;2024-01-30T03:14:14;96464.78;;;-2.18;76.48
83941;BME280;73976;68.386;23.636;2024-01-30T03:16:42;96417.44;;;-2.54;76.10
83941;BME280;73976;68.386;23.636;2024-01-30T03:19:11;96444.78;;;-2.34;75.26
83941;BME280;73976;68.386;23.636;2024-01-30T03:21:39;96439.75;;;-2.35;76.27
83941;BME280;73976;68.386;23.636;2024-01-30T03:24:07;96443.66;;;-2.31;74.83
83941;BME280;73976;68.386;23.636;2024-01-30T03:26:35;96505.50;;;-2.03;75.45
83941;BME280;73976;68.386;23.636;2024-01-30T03:29:03;96434.78;;;-2.29;76.18
83941;BME280;73976;68.386;23.636;2024-01-30T03:31:31;96508.66;;;-1.91;75.51
83941;BME280;73976;68.386;23.636;2024-01-30T03:34:01;96501.06;;;-1.93;74.65
83941;BME280;73976;68.386;23.636;2024-01-30T03:36:29;96498.03;;;-1.88;75.20
83941;BME280;73976;68.386;23.636;2024-01-30T03:39:01;96489.91;;;-1.93;74.53
83941;BME280;73976;68.386;23.636;2024-01-30T03:41:29;96510.38;;;-1.82;74.32
83941;BME280;73976;68.386;23.636;2024-01-30T03:43:57;96515.53;;;-1.82;74.95
83941;BME280;73976;68.386;23.636;2024-01-30T03:46:26;96512.59;;;-1.87;74.42
83941;BME280;73976;68.386;23.636;2024-01-30T03:48:54;96485.41;;;-2.09;74.10
83941;BME280;73976;68.386;23.636;2024-01-30T03:51:22;96540.19;;;-1.78;74.58
83941;BME280;73976;68.386;23.636;2024-01-30T03:53:50;96542.78;;;-1.78;73.99
83941;BME280;73976;68.386;23.636;2024-01-30T03:56:18;96394.53;;;-2.66;73.36
83941;BME280;73976;68.386;23.636;2024-01-30T03:58:46;96514.13;;;-1.94;73.69
83941;BME280;73976;68.386;23.636;2024-01-30T04:01:15;96529.44;;;-1.83;73.48
83941;BME280;73976;68.386;23.636;2024-01-30T04:03:43;96545.63;;;-1.63;73.58
83941;BME280;73976;68.386;23.636;2024-01-30T04:06:12;96457.69;;;-2.16;73.31
83941;BME280;73976;68.386;23.636;2024-01-30T04:08:41;96523.38;;;-1.74;72.99
83941;BME280;73976;68.386;23.636;2024-01-30T04:11:09;96536.03;;;-1.71;72.19
83941;BME280;73976;68.386;23.636;2024-01-30T04:13:37;96303.94;;;-3.17;73.05
83941;BME280;73976;68.386;23.636;2024-01-30T04:16:05;96502.72;;;-1.92;71.89
83941;BME280;73976;68.386;23.636;2024-01-30T04:18:34;96521.91;;;-1.94;72.51
83941;BME280;73976;68.386;23.636;2024-01-30T04:21:02;96555.63;;;-1.68;72.72
83941;BME280;73976;68.386;23.636;2024-01-30T04:23:30;96565.31;;;-1.70;72.50
83941;BME280;73976;68.386;23.636;2024-01-30T04:25:58;96494.19;;;-2.19;72.14
83941;BME280;73976;68.386;23.636;2024-01-30T04:28:26;96519.47;;;-2.13;72.00
83941;BME280;73976;68.386;23.636;2024-01-30T04:30:55;96524.63;;;-2.13;73.14
83941;BME280;73976;68.386;23.636;2024-01-30T04:33:23;96519.66;;;-2.24;73.52
83941;BME280;73976;68.386;23.636;2024-01-30T04:35:51;96573.00;;;-1.96;73.12
83941;BME280;73976;68.386;23.636;2024-01-30T04:38:19;96523.81;;;-2.31;74.08
83941;BME280;73976;68.386;23.636;2024-01-30T04:40:48;96516.63;;;-2.37;73.33
83941;BME280;73976;68.386;23.636;2024-01-30T04:43:16;96569.63;;;-2.06;74.38
83941;BME280;73976;68.386;23.636;2024-01-30T04:45:44;96491.19;;;-2.59;74.75
83941;BME280;73976;68.386;23.636;2024-01-30T04:48:12;96518.09;;;-2.52;75.15
83941;BME280;73976;68.386;23.636;2024-01-30T04:50:40;96548.19;;;-2.34;75.13
83941;BME280;73976;68.386;23.636;2024-01-30T04:53:08;96549.94;;;-2.34;74.66
83941;BME280;73976;68.386;23.636;2024-01-30T04:55:37;96566.88;;;-2.22;74.55
83941;BME280;73976;68.386;23.636;2024-01-30T04:58:05;96538.84;;;-2.44;74.70
83941;BME280;73976;68.386;23.636;2024-01-30T05:00:33;96530.56;;;-2.48;74.66
83941;BME280;73976;68.386;23.636;2024-01-30T05:03:01;96483.50;;;-2.69;75.57
83941;BME280;73976;68.386;23.636;2024-01-30T05:05:29;96577.34;;;-2.14;75.77
83941;BME280;73976;68.386;23.636;2024-01-30T05:07:57;96531.53;;;-2.49;75.69
83941;BME280;73976;68.386;23.636;2024-01-30T05:10:26;96592.63;;;-2.03;74.58
83941;BME280;73976;68.386;23.636;2024-01-30T05:12:56;96548.97;;;-2.33;74.94
83941;BME280;73976;68.386;23.636;2024-01-30T05:15:25;96598.19;;;-1.98;75.07
83941;BME280;73976;68.386;23.636;2024-01-30T05:17:53;96548.34;;;-2.35;75.13
83941;BME280;73976;68.386;23.636;2024-01-30T05:20:21;96618.59;;;-1.95;74.36
83941;BME280;73976;68.386;23.636;2024-01-30T05:22:50;96612.38;;;-2.02;75.27
83941;BME280;73976;68.386;23.636;2024-01-30T05:25:18;96546.91;;;-2.47;75.36
83941;BME280;73976;68.386;23.636;2024-01-30T05:27:46;96633.22;;;-2.04;75.59
83941;BME280;73976;68.386;23.636;2024-01-30T05:30:15;96610.75;;;-2.30;75.63
83941;BME280;73976;68.386;23.636;2024-01-30T05:32:43;96624.06;;;-2.25;75.28
83941;BME280;73976;68.386;23.636;2024-01-30T05:35:11;96628.28;;;-2.24;74.91
83941;BME280;73976;68.386;23.636;2024-01-30T05:37:39;96658.16;;;-2.12;75.79
83941;BME280;73976;68.386;23.636;2024-01-30T05:40:08;96631.28;;;-2.29;74.60
83941;BME280;73976;68.386;23.636;2024-01-30T05:42:36;96647.59;;;-2.19;76.15
83941;BME280;73976;68.386;23.636;2024-01-30T05:45:04;96630.50;;;-2.29;75.88
83941;BME280;73976;68.386;23.636;2024-01-30T05:47:33;96568.91;;;-2.70;74.60
83941;BME280;73976;68.386;23.636;2024-01-30T05:50:01;96570.16;;;-2.74;75.61
83941;BME280;73976;68.386;23.636;2024-01-30T05:52:29;96601.75;;;-2.53;74.97
83941;BME280;73976;68.386;23.636;2024-01-30T05:54:57;96606.25;;;-2.55;74.69
83941;BME280;73976;68.386;23.636;2024-01-30T05:57:25;96503.97;;;-3.21;75.27
83941;BME280;73976;68.386;23.636;2024-01-30T05:59:53;96575.19;;;-2.82;75.86
83941;BME280;73976;68.386;23.636;2024-01-30T06:02:21;96631.13;;;-2.54;75.42
83941;BME280;73976;68.386;23.636;2024-01-30T06:04:49;96606.59;;;-2.77;75.11
83941;BME280;73976;68.386;23.636;2024-01-30T06:07:18;96470.41;;;-3.67;75.97
83941;BME280;73976;68.386;23.636;2024-01-30T06:09:46;96621.97;;;-2.85;75.35
83941;BME280;73976;68.386;23.636;2024-01-30T06:12:14;96568.38;;;-3.29;75.33
83941;BME280;73976;68.386;23.636;2024-01-30T06:14:42;96436.00;;;-4.14;77.09
83941;BME280;73976;68.386;23.636;2024-01-30T06:17:14;96625.94;;;-3.00;76.16
83941;BME280;73976;68.386;23.636;2024-01-30T06:19:42;96621.06;;;-3.13;75.99
83941;BME280;73976;68.386;23.636;2024-01-30T06:22:10;96543.72;;;-3.60;76.58
83941;BME280;73976;68.386;23.636;2024-01-30T06:24:39;96586.91;;;-3.43;76.43
83941;BME280;73976;68.386;23.636;2024-01-30T06:27:07;96610.09;;;-3.24;77.05
83941;BME280;73976;68.386;23.636;2024-01-30T06:29:35;96367.66;;;-4.94;76.56
83941;BME280;73976;68.386;23.636;2024-01-30T06:32:04;96606.84;;;-3.45;76.67
83941;BME280;73976;68.386;23.636;2024-01-30T06:34:32;96572.09;;;-3.79;76.84
83941;BME280;73976;68.386;23.636;2024-01-30T06:37:00;96587.84;;;-3.63;76.63
83941;BME280;73976;68.386;23.636;2024-01-30T06:39:28;96576.03;;;-3.95;77.99
83941;BME280;73976;68.386;23.636;2024-01-30T06:41:56;96639.56;;;-3.65;78.22
83941;BME280;73976;68.386;23.636;2024-01-30T06:44:24;96644.59;;;-3.73;77.94
83941;BME280;73976;68.386;23.636;2024-01-30T06:46:52;96617.81;;;-3.91;78.16
83941;BME280;73976;68.386;23.636;2024-01-30T06:49:21;96620.25;;;-3.90;78.05
83941;BME280;73976;68.386;23.636;2024-01-30T06:51:50;96640.09;;;-3.81;76.87
83941;BME280;73976;68.386;23.636;2024-01-30T06:54:18;96631.97;;;-3.86;78.51
83941;BME280;73976;68.386;23.636;2024-01-30T06:56:46;96613.63;;;-3.92;78.32
83941;BME280;73976;68.386;23.636;2024-01-30T06:59:14;96612.66;;;-3.91;78.09
83941;BME280;73976;68.386;23.636;2024-01-30T07:01:42;96599.75;;;-3.91;77.11
83941;BME280;73976;68.386;23.636;2024-01-30T07:04:10;96582.81;;;-3.94;77.74
83941;BME280;73976;68.386;23.636;2024-01-30T07:06:39;96609.44;;;-3.45;78.60
83941;BME280;73976;68.386;23.636;2024-01-30T07:09:07;96589.59;;;-3.45;77.05
83941;BME280;73976;68.386;23.636;2024-01-30T07:11:36;96602.50;;;-3.35;77.04
83941;BME280;73976;68.386;23.636;2024-01-30T07:14:04;96612.66;;;-3.15;77.54
83941;BME280;73976;68.386;23.636;2024-01-30T07:16:32;96618.47;;;-3.03;75.41
83941;BME280;73976;68.386;23.636;2024-01-30T07:19:00;96632.47;;;-2.96;75.44
83941;BME280;73976;68.386;23.636;2024-01-30T07:21:28;96606.25;;;-3.11;75.70
83941;BME280;73976;68.386;23.636;2024-01-30T07:23:57;96599.31;;;-3.01;75.98
83941;BME280;73976;68.386;23.636;2024-01-30T07:26:25;96577.84;;;-3.01;74.97
83941;BME280;73976;68.386;23.636;2024-01-30T07:28:53;96539.28;;;-3.22;75.88
83941;BME280;73976;68.386;23.636;2024-01-30T07:31:21;96617.72;;;-2.77;74.77
83941;BME280;73976;68.386;23.636;2024-01-30T07:33:52;96513.38;;;-3.39;75.99
83941;BME280;73976;68.386;23.636;2024-01-30T07:36:21;96628.31;;;-2.70;74.54
83941;BME280;73976;68.386;23.636;2024-01-30T07:38:49;96636.75;;;-2.68;74.93
83941;BME280;73976;68.386;23.636;2024-01-30T07:41:17;96580.31;;;-3.09;76.08
83941;BME280;73976;68.386;23.636;2024-01-30T07:43:45;96576.38;;;-3.13;75.63
83941;BME280;73976;68.386;23.636;2024-01-30T07:46:13;96631.47;;;-2.76;76.31
83941;BME280;73976;68.386;23.636;2024-01-30T07:48:41;96556.84;;;-3.25;75.17
83941;BME280;73976;68.386;23.636;2024-01-30T07:51:09;96639.50;;;-2.79;75.88
83941;BME280;73976;68.386;23.636;2024-01-30T07:53:37;96377.13;;;-4.38;75.83
83941;BME280;73976;68.386;23.636;2024-01-30T07:56:06;96628.59;;;-2.73;74.91
83941;BME280;73976;68.386;23.636;2024-01-30T07:58:34;96632.16;;;-2.74;76.29
83941;BME280;73976;68.386;23.636;2024-01-30T08:01:02;96626.03;;;-2.83;75.58
83941;BME280;73976;68.386;23.636;2024-01-30T08:03:34;96642.22;;;-2.71;78.08
83941;BME280;73976;68.386;23.636;2024-01-30T08:06:02;96513.66;;;-3.42;76.96
83941;BME280;73976;68.386;23.636;2024-01-30T08:08:31;96529.09;;;-3.23;76.58
83941;BME280;73976;68.386;23.636;2024-01-30T08:11:04;96610.81;;;-2.76;76.96
83941;BME280;73976;68.386;23.636;2024-01-30T08:13:33;96588.69;;;-2.88;77.63
83941;BME280;73976;68.386;23.636;2024-01-30T08:16:01;96581.63;;;-2.86;77.41
83941;BME280;73976;68.386;23.636;2024-01-30T08:18:29;96401.53;;;-4.04;77.09
83941;BME280;73976;68.386;23.636;2024-01-30T08:20:57;96616.84;;;-2.58;78.04
83941;BME280;73976;68.386;23.636;2024-01-30T08:23:25;96620.00;;;-2.64;76.93
83941;BME280;73976;68.386;23.636;2024-01-30T08:25:53;96559.84;;;-2.93;77.39
83941;BME280;73976;68.386;23.636;2024-01-30T08:28:21;96617.69;;;-2.58;76.53
83941;BME280;73976;68.386;23.636;2024-01-30T08:30:49;96629.94;;;-2.60;77.16
83941;BME280;73976;68.386;23.636;2024-01-30T08:33:17;96535.16;;;-3.05;76.85
83941;BME280;73976;68.386;23.636;2024-01-30T08:35:46;96608.16;;;-2.57;77.13
83941;BME280;73976;68.386;23.636;2024-01-30T08:38:14;96551.03;;;-2.91;78.12
83941;BME280;73976;68.386;23.636;2024-01-30T08:40:42;96590.88;;;-2.57;78.19
83941;BME280;73976;68.386;23.636;2024-01-30T08:43:10;96608.94;;;-2.47;76.81
83941;BME280;73976;68.386;23.636;2024-01-30T08:45:38;96505.81;;;-3.04;77.17
83941;BME280;73976;68.386;23.636;2024-01-30T08:48:07;96582.56;;;-2.51;78.30
83941;BME280;73976;68.386;23.636;2024-01-30T08:50:35;96406.69;;;-3.57;78.50
83941;BME280;73976;68.386;23.636;2024-01-30T08:53:04;96587.69;;;-2.41;78.44
83941;BME280;73976;68.386;23.636;2024-01-30T08:55:32;96569.19;;;-2.46;78.31
83941;BME280;73976;68.386;23.636;2024-01-30T08:58:00;96568.38;;;-2.47;78.00
83941;BME280;73976;68.386;23.636;2024-01-30T09:00:29;96497.84;;;-2.84;77.50
83941;BME280;73976;68.386;23.636;2024-01-30T09:02:57;96553.16;;;-2.50;78.59
83941;BME280;73976;68.386;23.636;2024-01-30T09:05:25;96488.03;;;-2.80;78.45
83941;BME280;73976;68.386;23.636;2024-01-30T09:07:53;96568.16;;;-2.26;79.79
83941;BME280;73976;68.386;23.636;2024-01-30T09:10:21;96575.63;;;-2.23;79.77
83941;BME280;73976;68.386;23.636;2024-01-30T09:12:49;96576.94;;;-2.19;78.66
83941;BME280;73976;68.386;23.636;2024-01-30T09:15:18;96487.78;;;-2.60;79.37
83941;BME280;73976;68.386;23.636;2024-01-30T09:17:48;96554.56;;;-2.11;78.89
83941;BME280;73976;68.386;23.636;2024-01-30T09:20:16;96562.56;;;-2.04;80.12
83941;BME280;73976;68.386;23.636;2024-01-30T09:22:44;96540.25;;;-2.05;79.30
83941;BME280;73976;68.386;23.636;2024-01-30T09:25:12;96506.69;;;-2.15;80.19
83941;BME280;73976;68.386;23.636;2024-01-30T09:27:40;96535.13;;;-1.97;80.82
83941;BME280;73976;68.386;23.636;2024-01-30T09:30:08;96505.28;;;-2.09;80.77
83941;BME280;73976;68.386;23.636;2024-01-30T09:32:36;96510.91;;;-1.96;80.44
83941;BME280;73976;68.386;23.636;2024-01-30T09:35:05;96508.66;;;-1.91;79.02
83941;BME280;73976;68.386;23.636;2024-01-30T09:37:34;96548.28;;;-1.73;79.88
83941;BME280;73976;68.386;23.636;2024-01-30T09:40:02;96442.09;;;-2.24;79.01
83941;BME280;73976;68.386;23.636;2024-01-30T09:42:35;96536.41;;;-1.66;79.65
83941;BME280;73976;68.386;23.636;2024-01-30T09:45:06;96538.16;;;-1.66;79.78
83941;BME280;73976;68.386;23.636;2024-01-30T09:47:41;96527.66;;;-1.65;80.35
83941;BME280;73976;68.386;23.636;2024-01-30T09:50:14;96472.31;;;-2.07;80.00
83941;BME280;73976;68.386;23.636;2024-01-30T09:52:47;96506.84;;;-1.81;81.17
83941;BME280;73976;68.386;23.636;2024-01-30T09:55:15;96479.56;;;-1.93;81.16
83941;BME280;73976;68.386;23.636;2024-01-30T09:57:43;96454.88;;;-2.05;81.29
83941;BME280;73976;68.386;23.636;2024-01-30T10:00:12;96528.38;;;-1.55;81.71
83941;BME280;73976;68.386;23.636;2024-01-30T10:02:40;96521.97;;;-1.51;80.74
83941;BME280;73976;68.386;23.636;2024-01-30T10:05:08;96487.22;;;-1.66;81.21
83941;BME280;73976;68.386;23.636;2024-01-30T10:07:37;96508.72;;;-1.48;81.47
83941;BME280;73976;68.386;23.636;2024-01-30T10:10:06;96522.59;;;-1.31;80.77
83941;BME280;73976;68.386;23.636;2024-01-30T10:12:34;96500.28;;;-1.50;81.14
83941;BME280;73976;68.386;23.636;2024-01-30T10:15:03;96507.16;;;-1.41;80.31
83941;BME280;73976;68.386;23.636;2024-01-30T10:17:31;96493.34;;;-1.49;81.35
83941;BME280;73976;68.386;23.636;2024-01-30T10:20:04;96493.28;;;-1.32;81.19
83941;BME280;73976;68.386;23.636;2024-01-30T10:22:33;96498.16;;;-1.29;82.11
83941;BME280;73976;68.386;23.636;2024-01-30T10:25:01;96517.59;;;-1.25;83.01
83941;BME280;73976;68.386;23.636;2024-01-30T10:27:33;96482.97;;;-1.24;83.09
83941;BME280;73976;68.386;23.636;2024-01-30T10:30:01;96481.41;;;-1.17;83.41
83941;BME280;73976;68.386;23.636;2024-01-30T10:32:31;96461.59;;;-1.26;82.37
83941;BME280;73976;68.386;23.636;2024-01-30T10:35:00;96494.63;;;-0.94;83.26
83941;BME280;73976;68.386;23.636;2024-01-30T10:37:30;96491.72;;;-0.91;82.26
83941;BME280;73976;68.386;23.636;2024-01-30T10:40:03;96494.53;;;-0.85;83.70
83941;BME280;73976;68.386;23.636;2024-01-30T10:42:36;96499.72;;;-0.77;83.37
83941;BME280;73976;68.386;23.636;2024-01-30T10:45:09;96450.38;;;-1.01;83.40
83941;BME280;73976;68.386;23.636;2024-01-30T10:47:37;96488.25;;;-0.66;83.74
83941;BME280;73976;68.386;23.636;2024-01-30T10:50:07;96439.25;;;-0.93;82.92
83941;BME280;73976;68.386;23.636;2024-01-30T10:52:36;96473.06;;;-0.61;82.26
83941;BME280;73976;68.386;23.636;2024-01-30T10:55:06;96425.81;;;-0.89;82.80
83941;BME280;73976;68.386;23.636;2024-01-30T10:57:35;96515.47;;;-0.29;83.39
83941;BME280;73976;68.386;23.636;2024-01-30T11:00:07;96429.28;;;-0.72;83.00
83941;BME280;73976;68.386;23.636;2024-01-30T11:02:43;96510.34;;;-0.13;83.41
83941;BME280;73976;68.386;23.636;2024-01-30T11:05:12;96517.47;;;-0.07;83.34
83941;BME280;73976;68.386;23.636;2024-01-30T11:07:40;96509.53;;;-0.05;82.95
83941;BME280;73976;68.386;23.636;2024-01-30T11:10:09;96415.75;;;-0.50;83.02
83941;BME280;73976;68.386;23.636;2024-01-30T11:12:41;96400.97;;;-0.50;82.71
83941;BME280;73976;68.386;23.636;2024-01-30T11:15:13;96388.97;;;-0.51;82.67
83941;BME280;73976;68.386;23.636;2024-01-30T11:20:25;96494.34;;;0.24;82.49
83941;BME280;73976;68.386;23.636;2024-01-30T11:22:55;96508.47;;;0.38;82.07
83941;BME280;73976;68.386;23.636;2024-01-30T11:25:25;96500.31;;;0.57;81.58
83941;BME280;73976;68.386;23.636;2024-01-30T11:27:54;96518.50;;;0.73;81.16
83941;BME280;73976;68.386;23.636;2024-01-30T11:30:31;96445.78;;;0.49;80.62
83941;BME280;73976;68.386;23.636;2024-01-30T11:33:03;96526.69;;;1.24;79.44
83941;BME280;73976;68.386;23.636;2024-01-30T11:35:37;96519.00;;;1.39;79.22
83941;BME280;73976;68.386;23.636;2024-01-30T11:38:09;96524.63;;;1.58;78.14
83941;BME280;73976;68.386;23.636;2024-01-30T11:40:38;96520.72;;;1.62;78.02
83941;BME280;73976;68.386;23.636;2024-01-30T11:43:08;96486.53;;;1.27;77.63
83941;BME280;73976;68.386;23.636;2024-01-30T11:45:37;96476.84;;;1.13;78.37
83941;BME280;73976;68.386;23.636;2024-01-30T11:48:06;96516.78;;;1.20;78.76
83941;BME280;73976;68.386;23.636;2024-01-30T11:50:35;96509.66;;;1.06;78.79
83941;BME280;73976;68.386;23.636;2024-01-30T11:53:06;96519.28;;;0.97;79.77
83941;BME280;73976;68.386;23.636;2024-01-30T11:55:34;96400.19;;;0.14;79.33
83941;BME280;73976;68.386;23.636;2024-01-30T11:58:05;96506.47;;;0.72;79.80
83941;BME280;73976;68.386;23.636;2024-01-30T12:00:33;96506.97;;;0.59;80.44
83941;BME280;73976;68.386;23.636;2024-01-30T12:03:03;96471.28;;;0.21;80.88
83941;BME280;73976;68.386;23.636;2024-01-30T12:05:33;96506.50;;;0.40;81.04
83941;BME280;73976;68.386;23.636;2024-01-30T12:08:01;96466.88;;;0.06;81.17
83941;BME280;73976;68.386;23.636;2024-01-30T12:10:30;96473.69;;;-0.02;81.07
83941;BME280;73976;68.386;23.636;2024-01-30T12:12:58;96508.13;;;0.17;81.31
83941;BME280;73976;68.386;23.636;2024-01-30T12:15:27;96504.53;;;0.10;81.75
83941;BME280;73976;68.386;23.636;2024-01-30T12:18:06;96511.66;;;-0.01;81.37
83941;BME280;73976;68.386;23.636;2024-01-30T12:20:35;96487.28;;;-0.16;82.17
83941;BME280;73976;68.386;23.636;2024-01-30T12:23:03;96504.16;;;-0.12;81.53
83941;BME280;73976;68.386;23.636;2024-01-30T12:25:31;96519.72;;;-0.12;81.44
83941;BME280;73976;68.386;23.636;2024-01-30T12:28:00;96508.19;;;-0.25;81.65
83941;BME280;73976;68.386;23.636;2024-01-30T12:30:28;96461.25;;;-0.64;82.01
83941;BME280;73976;68.386;23.636;2024-01-30T12:32:57;96445.91;;;-0.83;82.15
83941;BME280;73976;68.386;23.636;2024-01-30T12:35:26;96517.91;;;-0.35;83.02
83941;BME280;73976;68.386;23.636;2024-01-30T12:37:58;96525.00;;;-0.37;84.26
83941;BME280;73976;68.386;23.636;2024-01-30T12:40:26;96524.56;;;-0.25;83.79
83941;BME280;73976;68.386;23.636;2024-01-30T12:42:55;96522.28;;;-0.20;84.20
83941;BME280;73976;68.386;23.636;2024-01-30T12:45:25;96500.25;;;-0.24;83.66
83941;BME280;73976;68.386;23.636;2024-01-30T12:47:53;96527.53;;;-0.04;84.12
83941;BME280;73976;68.386;23.636;2024-01-30T12:50:21;96467.13;;;-0.38;83.41
83941;BME280;73976;68.386;23.636;2024-01-30T12:52:50;96516.84;;;-0.01;82.72
83941;BME280;73976;68.386;23.636;2024-01-30T12:55:18;96444.09;;;-0.49;82.30
83941;BME280;73976;68.386;23.636;2024-01-30T12:57:46;96504.81;;;-0.18;82.51
83941;BME280;73976;68.386;23.636;2024-01-30T13:00:14;96518.72;;;-0.27;82.37